AXY735 SBGO-SBDB
Flight info
| Callsign | AXY735 |
|---|---|
| Flight time | 1h 17m |
| Altitude | 40000 |
| Route | UBSUS UM544 GRD DCT USVAT |
| Aircraft | C750/M-SBDE3FGHRWXY/S |
Departure
| Time | 2026-05-04 15:30 |
|---|---|
| Airport | Santa Genoveva International Airport (SBGO) |
Arrival
| Time | 2026-05-04 16:47 |
|---|---|
| Airport | Bonito Airport (SBDB) |
| Time | Latitude | Longitude | Altitude | Speed | Heading |
|---|---|---|---|---|---|
| 2026-05-04 15:20 | -16.63362 | -49.22447 | 2437 ft | 0 kts | 210° |
| 2026-05-04 15:26 | -16.63367 | -49.22452 | 2438 ft | 5 kts | 229° |
| 2026-05-04 15:26 | -16.63325 | -49.22533 | 2446 ft | 12 kts | 334° |
| 2026-05-04 15:27 | -16.63230 | -49.22516 | 2446 ft | 14 kts | 12° |
| 2026-05-04 15:27 | -16.63092 | -49.22680 | 2450 ft | 19 kts | 297° |
| 2026-05-04 15:28 | -16.62947 | -49.22945 | 2451 ft | 20 kts | 300° |
| 2026-05-04 15:28 | -16.62878 | -49.23063 | 2453 ft | 18 kts | 306° |
| 2026-05-04 15:28 | -16.62668 | -49.23130 | 2450 ft | 14 kts | 15° |
| 2026-05-04 15:29 | -16.62664 | -49.23057 | 2456 ft | 11 kts | 121° |
| 2026-05-04 15:30 | -16.64188 | -49.20403 | 3504 ft | 176 kts | 113° |
| 2026-05-04 15:30 | -16.67359 | -49.17264 | 4599 ft | 274 kts | 171° |
| 2026-05-04 15:31 | -16.71152 | -49.18435 | 6370 ft | 291 kts | 201° |
| 2026-05-04 15:31 | -16.73040 | -49.19221 | 7374 ft | 294 kts | 199° |
| 2026-05-04 15:32 | -16.78934 | -49.21432 | 8154 ft | 300 kts | 200° |
| 2026-05-04 15:32 | -16.82865 | -49.22947 | 8132 ft | 300 kts | 199° |
| 2026-05-04 15:33 | -16.86593 | -49.24845 | 8064 ft | 303 kts | 225° |
| 2026-05-04 15:34 | -16.89015 | -49.30768 | 8558 ft | 301 kts | 253° |
| 2026-05-04 15:34 | -16.89674 | -49.32805 | 9875 ft | 296 kts | 253° |
| 2026-05-04 15:34 | -16.91061 | -49.37102 | 10825 ft | 336 kts | 253° |
| 2026-05-04 15:35 | -16.92647 | -49.42025 | 11754 ft | 364 kts | 252° |
| 2026-05-04 15:35 | -16.93458 | -49.44538 | 12507 ft | 369 kts | 252° |
| 2026-05-04 15:35 | -16.94277 | -49.47092 | 13235 ft | 373 kts | 252° |
| 2026-05-04 15:36 | -16.95932 | -49.52242 | 14634 ft | 379 kts | 251° |
| 2026-05-04 15:36 | -16.96774 | -49.54859 | 15293 ft | 382 kts | 251° |
| 2026-05-04 15:36 | -16.97621 | -49.57501 | 15977 ft | 384 kts | 251° |
| 2026-05-04 15:37 | -16.98472 | -49.60155 | 16692 ft | 387 kts | 251° |
| 2026-05-04 15:37 | -16.99331 | -49.62835 | 17380 ft | 391 kts | 251° |
| 2026-05-04 15:37 | -17.00197 | -49.65537 | 18088 ft | 394 kts | 251° |
| 2026-05-04 15:37 | -17.01071 | -49.68264 | 18788 ft | 397 kts | 251° |
| 2026-05-04 15:38 | -17.01946 | -49.70998 | 19501 ft | 398 kts | 251° |
| 2026-05-04 15:38 | -17.02829 | -49.73759 | 20176 ft | 402 kts | 251° |
| 2026-05-04 15:38 | -17.03812 | -49.76507 | 20757 ft | 407 kts | 244° |
| 2026-05-04 15:38 | -17.05340 | -49.78995 | 21546 ft | 405 kts | 233° |
| 2026-05-04 15:39 | -17.07021 | -49.81316 | 22315 ft | 407 kts | 232° |
| 2026-05-04 15:39 | -17.08746 | -49.83685 | 22903 ft | 413 kts | 232° |
| 2026-05-04 15:39 | -17.12240 | -49.88532 | 24187 ft | 419 kts | 232° |
| 2026-05-04 15:40 | -17.13997 | -49.90966 | 24777 ft | 422 kts | 232° |
| 2026-05-04 15:40 | -17.15172 | -49.92589 | 25144 ft | 424 kts | 232° |
| 2026-05-04 15:40 | -17.16958 | -49.95062 | 25728 ft | 427 kts | 233° |
| 2026-05-04 15:40 | -17.18751 | -49.97550 | 26335 ft | 429 kts | 233° |
| 2026-05-04 15:41 | -17.20553 | -50.00050 | 26928 ft | 432 kts | 233° |
| 2026-05-04 15:41 | -17.22365 | -50.02563 | 27526 ft | 434 kts | 233° |
| 2026-05-04 15:41 | -17.24188 | -50.05092 | 28115 ft | 437 kts | 233° |
| 2026-05-04 15:41 | -17.26018 | -50.07632 | 28697 ft | 439 kts | 233° |
| 2026-05-04 15:42 | -17.27865 | -50.10198 | 29262 ft | 442 kts | 234° |
| 2026-05-04 15:42 | -17.29723 | -50.12781 | 29807 ft | 445 kts | 234° |
| 2026-05-04 15:42 | -17.31594 | -50.15381 | 30303 ft | 447 kts | 234° |
| 2026-05-04 15:42 | -17.33469 | -50.17986 | 30779 ft | 449 kts | 234° |
| 2026-05-04 15:43 | -17.35324 | -50.20568 | 31316 ft | 448 kts | 234° |
| 2026-05-04 15:43 | -17.37187 | -50.23159 | 32026 ft | 443 kts | 234° |
| 2026-05-04 15:43 | -17.39054 | -50.25757 | 32750 ft | 439 kts | 234° |
| 2026-05-04 15:43 | -17.40877 | -50.28297 | 33470 ft | 434 kts | 234° |
| 2026-05-04 15:44 | -17.42663 | -50.30785 | 34170 ft | 430 kts | 234° |
| 2026-05-04 15:44 | -17.44454 | -50.33281 | 34796 ft | 426 kts | 234° |
| 2026-05-04 15:44 | -17.46231 | -50.35744 | 35406 ft | 423 kts | 234° |
| 2026-05-04 15:44 | -17.48006 | -50.38191 | 36036 ft | 420 kts | 234° |
| 2026-05-04 15:45 | -17.49763 | -50.40619 | 36666 ft | 416 kts | 234° |
| 2026-05-04 15:45 | -17.51500 | -50.43029 | 37310 ft | 413 kts | 234° |
| 2026-05-04 15:45 | -17.53227 | -50.45424 | 37965 ft | 410 kts | 234° |
| 2026-05-04 15:45 | -17.54939 | -50.47796 | 38629 ft | 407 kts | 234° |
| 2026-05-04 15:46 | -17.56642 | -50.50155 | 39192 ft | 404 kts | 234° |
| 2026-05-04 15:46 | -17.58337 | -50.52506 | 39686 ft | 403 kts | 234° |
| 2026-05-04 15:46 | -17.60036 | -50.54866 | 40053 ft | 407 kts | 235° |
| 2026-05-04 15:46 | -17.61744 | -50.57239 | 40042 ft | 418 kts | 235° |
| 2026-05-04 15:47 | -17.63520 | -50.59705 | 40047 ft | 429 kts | 234° |
| 2026-05-04 15:47 | -17.67192 | -50.64818 | 40059 ft | 447 kts | 234° |
| 2026-05-04 15:48 | -17.70995 | -50.70116 | 40060 ft | 460 kts | 234° |
| 2026-05-04 15:48 | -17.76817 | -50.78232 | 40060 ft | 463 kts | 234° |
| 2026-05-04 15:49 | -17.80686 | -50.83637 | 40057 ft | 463 kts | 234° |
| 2026-05-04 15:49 | -17.84534 | -50.89013 | 40052 ft | 464 kts | 234° |
| 2026-05-04 15:50 | -17.88407 | -50.94430 | 40053 ft | 464 kts | 234° |
| 2026-05-04 15:50 | -17.92280 | -50.99853 | 40050 ft | 464 kts | 234° |
| 2026-05-04 15:51 | -17.96150 | -51.05277 | 40052 ft | 464 kts | 234° |
| 2026-05-04 15:51 | -18.00024 | -51.10709 | 40052 ft | 464 kts | 234° |
| 2026-05-04 15:52 | -18.03891 | -51.16136 | 40044 ft | 464 kts | 234° |
| 2026-05-04 15:52 | -18.07758 | -51.21569 | 40044 ft | 464 kts | 234° |
| 2026-05-04 15:53 | -18.11623 | -51.27003 | 40045 ft | 464 kts | 234° |
| 2026-05-04 15:53 | -18.15459 | -51.32401 | 40057 ft | 464 kts | 235° |
| 2026-05-04 15:54 | -18.19331 | -51.37851 | 40047 ft | 461 kts | 235° |
| 2026-05-04 15:54 | -18.23150 | -51.43238 | 40048 ft | 462 kts | 235° |
| 2026-05-04 15:55 | -18.26993 | -51.48657 | 40043 ft | 462 kts | 235° |
| 2026-05-04 15:55 | -18.30838 | -51.54086 | 40044 ft | 462 kts | 235° |
| 2026-05-04 15:56 | -18.34681 | -51.59515 | 40044 ft | 462 kts | 235° |
| 2026-05-04 15:56 | -18.38509 | -51.64944 | 40047 ft | 462 kts | 235° |
| 2026-05-04 15:57 | -18.42338 | -51.70377 | 40046 ft | 462 kts | 235° |
| 2026-05-04 15:57 | -18.46146 | -51.75783 | 40046 ft | 462 kts | 235° |
| 2026-05-04 15:58 | -18.49981 | -51.81211 | 40042 ft | 462 kts | 235° |
| 2026-05-04 15:58 | -18.53813 | -51.86650 | 40043 ft | 462 kts | 235° |
| 2026-05-04 15:59 | -18.57646 | -51.92088 | 40049 ft | 460 kts | 235° |
| 2026-05-04 15:59 | -18.61461 | -51.97510 | 40049 ft | 460 kts | 235° |
| 2026-05-04 16:00 | -18.65279 | -52.02937 | 40050 ft | 460 kts | 235° |
| 2026-05-04 16:00 | -18.69084 | -52.08351 | 40054 ft | 459 kts | 235° |
| 2026-05-04 16:01 | -18.72883 | -52.13764 | 40057 ft | 460 kts | 235° |
| 2026-05-04 16:01 | -18.76686 | -52.19184 | 40057 ft | 459 kts | 235° |
| 2026-05-04 16:02 | -18.80460 | -52.24569 | 40057 ft | 459 kts | 235° |
| 2026-05-04 16:03 | -18.86160 | -52.32708 | 40056 ft | 458 kts | 235° |
| 2026-05-04 16:03 | -18.89945 | -52.38123 | 40053 ft | 458 kts | 235° |
| 2026-05-04 16:04 | -18.93731 | -52.43543 | 40053 ft | 458 kts | 235° |
| 2026-05-04 16:04 | -18.99362 | -52.51625 | 40052 ft | 453 kts | 235° |
| 2026-05-04 16:05 | -19.03095 | -52.56987 | 40054 ft | 453 kts | 235° |
| 2026-05-04 16:06 | -19.08701 | -52.65047 | 40050 ft | 454 kts | 235° |
| 2026-05-04 16:07 | -19.16173 | -52.75799 | 40046 ft | 453 kts | 235° |
| 2026-05-04 16:08 | -19.23619 | -52.86535 | 40042 ft | 453 kts | 235° |
| 2026-05-04 16:09 | -19.32904 | -52.99943 | 40045 ft | 452 kts | 235° |
| 2026-05-04 16:10 | -19.40324 | -53.10681 | 40047 ft | 447 kts | 236° |
| 2026-05-04 16:11 | -19.47682 | -53.21350 | 40046 ft | 449 kts | 236° |
| 2026-05-04 16:12 | -19.58684 | -53.37335 | 40045 ft | 449 kts | 236° |
| 2026-05-04 16:13 | -19.66031 | -53.48033 | 40051 ft | 448 kts | 236° |
| 2026-05-04 16:14 | -19.73352 | -53.58713 | 40053 ft | 448 kts | 236° |
| 2026-05-04 16:16 | -19.82509 | -53.72096 | 40047 ft | 445 kts | 236° |
| 2026-05-04 16:17 | -19.91597 | -53.85410 | 40048 ft | 447 kts | 236° |
| 2026-05-04 16:18 | -19.98889 | -53.96115 | 40043 ft | 447 kts | 236° |
| 2026-05-04 16:19 | -20.07979 | -54.09488 | 40044 ft | 447 kts | 236° |
| 2026-05-04 16:20 | -20.17090 | -54.22839 | 40045 ft | 446 kts | 236° |
| 2026-05-04 16:22 | -20.26184 | -54.36191 | 40048 ft | 445 kts | 236° |
| 2026-05-04 16:23 | -20.37080 | -54.52231 | 40045 ft | 444 kts | 236° |
| 2026-05-04 16:24 | -20.44286 | -54.62862 | 39692 ft | 433 kts | 236° |
| 2026-05-04 16:25 | -20.47696 | -54.67876 | 38559 ft | 402 kts | 235° |
| 2026-05-04 16:26 | -20.55119 | -54.76066 | 36539 ft | 386 kts | 228° |
| 2026-05-04 16:26 | -20.60374 | -54.81636 | 35126 ft | 411 kts | 227° |
| 2026-05-04 16:27 | -20.64487 | -54.86019 | 34010 ft | 422 kts | 227° |
| 2026-05-04 16:28 | -20.70795 | -54.92730 | 32274 ft | 431 kts | 227° |
| 2026-05-04 16:28 | -20.77196 | -54.99556 | 30555 ft | 440 kts | 227° |
| 2026-05-04 16:29 | -20.85742 | -55.08756 | 28196 ft | 428 kts | 231° |
| 2026-05-04 16:30 | -20.89991 | -55.17016 | 26532 ft | 420 kts | 243° |
| 2026-05-04 16:31 | -20.92623 | -55.22560 | 25437 ft | 416 kts | 243° |
| 2026-05-04 16:31 | -20.96513 | -55.30807 | 23800 ft | 411 kts | 243° |
| 2026-05-04 16:32 | -21.00327 | -55.38893 | 22150 ft | 403 kts | 243° |
| 2026-05-04 16:33 | -21.02846 | -55.44241 | 21094 ft | 399 kts | 244° |
| 2026-05-04 16:33 | -21.05316 | -55.49493 | 20047 ft | 393 kts | 244° |
| 2026-05-04 16:34 | -21.07744 | -55.54658 | 19029 ft | 389 kts | 244° |
| 2026-05-04 16:34 | -21.08958 | -55.57243 | 18515 ft | 387 kts | 244° |
| 2026-05-04 16:35 | -21.12554 | -55.64908 | 16949 ft | 381 kts | 244° |
| 2026-05-04 16:35 | -21.16089 | -55.72453 | 15454 ft | 373 kts | 244° |
| 2026-05-04 16:36 | -21.17246 | -55.74926 | 14963 ft | 370 kts | 245° |
| 2026-05-04 16:36 | -21.19556 | -55.79864 | 13985 ft | 372 kts | 244° |
| 2026-05-04 16:37 | -21.21844 | -55.84758 | 12990 ft | 364 kts | 245° |
| 2026-05-04 16:37 | -21.22980 | -55.87193 | 12507 ft | 365 kts | 244° |
| 2026-05-04 16:37 | -21.25233 | -55.92018 | 11552 ft | 363 kts | 245° |
| 2026-05-04 16:38 | -21.27382 | -55.96627 | 10642 ft | 325 kts | 245° |
| 2026-05-04 16:39 | -21.30240 | -56.02767 | 9411 ft | 298 kts | 245° |
| 2026-05-04 16:39 | -21.32085 | -56.06731 | 8629 ft | 296 kts | 245° |
| 2026-05-04 16:40 | -21.33905 | -56.10644 | 7852 ft | 294 kts | 246° |
| 2026-05-04 16:40 | -21.35724 | -56.14562 | 7083 ft | 291 kts | 246° |
| 2026-05-04 16:41 | -21.37522 | -56.18434 | 6317 ft | 288 kts | 247° |
| 2026-05-04 16:41 | -21.40189 | -56.24184 | 5162 ft | 285 kts | 247° |
| 2026-05-04 16:42 | -21.42711 | -56.29887 | 3997 ft | 277 kts | 259° |
| 2026-05-04 16:43 | -21.42550 | -56.33866 | 4017 ft | 267 kts | 281° |
| 2026-05-04 16:43 | -21.42124 | -56.37844 | 3962 ft | 271 kts | 282° |
| 2026-05-04 16:43 | -21.41447 | -56.39635 | 3702 ft | 243 kts | 308° |
| 2026-05-04 16:44 | -21.36210 | -56.42221 | 3037 ft | 208 kts | 347° |
| 2026-05-04 16:45 | -21.33411 | -56.42962 | 2681 ft | 211 kts | 347° |
| 2026-05-04 16:46 | -21.29429 | -56.44008 | 1844 ft | 172 kts | 347° |
| 2026-05-04 16:46 | -21.27481 | -56.44521 | 1452 ft | 126 kts | 349° |
| 2026-05-04 16:47 | -21.25854 | -56.44947 | 1159 ft | 115 kts | 348° |
| 2026-05-04 16:47 | -21.24594 | -56.45277 | 1092 ft | 36 kts | 347° |
| 2026-05-04 16:48 | -21.24411 | -56.45184 | 1094 ft | 8 kts | 76° |
| 2026-05-04 16:48 | -21.24393 | -56.45126 | 1094 ft | 9 kts | 54° |
| 2026-05-04 16:49 | -21.24354 | -56.45119 | 1094 ft | 0 kts | 348° |